createdAt,value
2019-01-26T00:07:00.149Z,1.13
2019-01-26T00:17:00.814Z,1.42
2019-01-26T00:27:01.572Z,1.37
2019-01-26T00:37:02.545Z,1.41
2019-01-26T00:47:04.209Z,1.39
2019-01-26T00:57:05.169Z,1.44
2019-01-26T01:07:05.897Z,1.44
2019-01-26T01:17:06.515Z,1.51
2019-01-26T01:27:07.522Z,1.58
2019-01-26T01:37:10.233Z,1.66
2019-01-26T01:47:11.547Z,1.67
2019-01-26T01:57:12.240Z,1.85
2019-01-26T02:07:13.113Z,1.80
2019-01-26T02:17:15.457Z,1.92
2019-01-26T02:27:16.440Z,1.98
2019-01-26T02:37:18.130Z,2.00
2019-01-26T02:47:20.268Z,2.12
2019-01-26T02:57:21.440Z,2.11
2019-01-26T03:07:23.101Z,2.17
2019-01-26T03:17:23.757Z,2.17
2019-01-26T03:27:24.407Z,2.22
2019-01-26T03:37:25.348Z,2.29
2019-01-26T03:47:26.152Z,2.30
2019-01-26T03:57:27.178Z,2.42
2019-01-26T04:07:28.112Z,2.35
2019-01-26T04:17:28.766Z,2.46
2019-01-26T04:27:29.456Z,2.44
2019-01-26T04:37:30.141Z,2.58
2019-01-26T04:47:31.830Z,2.66
2019-01-26T04:57:32.547Z,2.55
2019-01-26T05:07:34.620Z,2.66
2019-01-26T05:17:39.369Z,2.78
2019-01-26T05:27:40.293Z,2.99
2019-01-26T05:37:41.246Z,2.79
2019-01-26T05:47:48.264Z,2.99
2019-01-26T05:57:44.723Z,3.20
2019-01-26T06:07:50.020Z,2.98
2019-01-26T06:17:55.208Z,3.08
2019-01-26T06:27:53.854Z,3.10
2019-01-26T06:37:54.581Z,3.05
2019-01-26T06:48:01.879Z,3.07
2019-01-26T06:57:58.282Z,3.21
2019-01-26T07:07:58.933Z,3.46
2019-01-26T07:17:59.631Z,3.58
2019-01-26T07:28:01.618Z,3.35
2019-01-26T07:38:02.796Z,3.24
2019-01-26T07:48:03.504Z,3.38
2019-01-26T07:58:04.194Z,3.47
2019-01-26T08:08:08.301Z,3.69
2019-01-26T08:18:09.322Z,3.74
2019-01-26T08:28:10.289Z,4.03
2019-01-26T08:38:11.239Z,4.00
2019-01-26T08:48:12.146Z,4.24
2019-01-26T08:58:13.859Z,4.24
2019-01-26T09:08:14.747Z,4.38
2019-01-26T09:18:15.415Z,4.48
2019-01-26T09:28:16.074Z,4.65
2019-01-26T09:38:17.008Z,4.70
2019-01-26T09:48:18.262Z,4.84
2019-01-26T09:58:20.035Z,4.86
2019-01-26T10:08:20.906Z,4.76
2019-01-26T10:18:21.543Z,4.90
2019-01-26T10:28:23.253Z,5.13
2019-01-26T10:38:23.942Z,5.18
2019-01-26T10:48:25.697Z,5.19
2019-01-26T10:58:26.561Z,5.19
2019-01-26T11:08:27.301Z,5.37
2019-01-26T11:18:28.267Z,5.31
2019-01-26T11:28:29.967Z,5.26
2019-01-26T11:38:31.636Z,5.30
2019-01-26T11:48:32.268Z,5.40
2019-01-26T11:58:32.900Z,5.32
2019-01-26T12:08:34.813Z,5.31
2019-01-26T12:18:35.738Z,5.46
2019-01-26T12:28:36.740Z,5.63
2019-01-26T12:38:37.471Z,5.68
2019-01-26T12:48:38.137Z,6.04
2019-01-26T12:58:38.869Z,6.21
2019-01-26T13:08:40.546Z,6.15
2019-01-26T13:18:41.463Z,6.06
2019-01-26T13:28:42.235Z,5.85
2019-01-26T13:38:42.919Z,5.87
2019-01-26T13:48:44.654Z,5.73
2019-01-26T14:09:30.201Z,5.61
2019-01-26T14:19:31.086Z,5.56
2019-01-26T14:29:32.038Z,5.63
2019-01-26T14:39:35.010Z,5.71
2019-01-26T14:49:38.035Z,5.75
2019-01-26T14:59:38.811Z,5.76
2019-01-26T15:09:39.636Z,5.54
2019-01-26T15:19:41.652Z,5.55
2019-01-26T15:29:44.294Z,5.50
2019-01-26T15:39:45.304Z,5.64
2019-01-26T15:49:49.207Z,5.54
2019-01-26T15:59:53.573Z,5.37
2019-01-26T16:09:52.969Z,5.18
2019-01-26T16:19:54.120Z,5.33
2019-01-26T16:29:55.026Z,5.21
2019-01-26T16:40:14.320Z,5.25
2019-01-26T16:50:27.723Z,5.32
2019-01-26T17:00:35.008Z,5.30
2019-01-26T17:10:37.774Z,5.23
2019-01-26T17:20:53.586Z,4.97
2019-01-26T17:30:53.806Z,4.93
2019-01-26T17:41:04.908Z,5.00
2019-01-26T17:51:08.225Z,4.78
2019-01-26T18:11:40.131Z,4.57
2019-01-26T18:21:41.330Z,4.68
2019-01-26T18:31:43.085Z,4.72
2019-01-26T18:41:43.831Z,4.59
2019-01-26T18:51:58.089Z,4.44
2019-01-26T19:02:08.044Z,4.48
2019-01-26T19:12:08.762Z,4.43
2019-01-26T19:22:09.678Z,4.40
2019-01-26T19:32:10.451Z,4.49
2019-01-26T19:42:12.517Z,4.52
2019-01-26T19:52:36.215Z,4.43
2019-01-26T20:02:37.615Z,4.47
2019-01-26T20:23:21.960Z,4.43
2019-01-26T20:33:22.659Z,4.49
2019-01-26T20:43:23.362Z,4.55
2019-01-26T21:04:08.116Z,4.55
2019-01-26T21:34:54.219Z,4.66
2019-01-26T21:44:54.895Z,4.52
2019-01-26T21:54:55.566Z,4.52
2019-01-26T22:04:56.488Z,4.44
2019-01-26T22:14:57.396Z,4.39
2019-01-26T22:25:03.346Z,4.34
2019-01-26T22:35:04.551Z,4.27
2019-01-26T22:55:50.896Z,4.58
2019-01-26T23:16:43.455Z,4.67
2019-01-26T23:27:26.612Z,4.69
2019-01-26T23:37:30.529Z,4.75
2019-01-26T23:47:31.492Z,4.69
2019-01-26T23:57:32.264Z,4.73
